createdAt,value
2023-01-04T00:00:46.306Z,8.00
2023-01-04T00:04:48.262Z,4.73
2023-01-04T00:08:49.444Z,6.70
2023-01-04T00:12:50.587Z,5.00
2023-01-04T00:16:51.842Z,4.07
2023-01-04T00:20:52.991Z,5.43
2023-01-04T00:24:54.164Z,3.70
2023-01-04T00:28:57.286Z,5.33
2023-01-04T00:32:58.654Z,3.03
2023-01-04T00:36:59.822Z,5.23
2023-01-04T00:41:01.886Z,5.50
2023-01-04T00:45:03.289Z,6.47
2023-01-04T00:49:05.565Z,4.43
2023-01-04T00:53:06.690Z,3.77
2023-01-04T00:57:08.488Z,4.90
2023-01-04T01:01:09.855Z,4.50
2023-01-04T01:05:11.389Z,8.10
2023-01-04T01:09:13.043Z,5.00
2023-01-04T01:13:14.197Z,5.27
2023-01-04T01:17:15.429Z,4.90
2023-01-04T01:21:22.693Z,5.53
2023-01-04T01:25:23.874Z,7.63
2023-01-04T01:29:27.092Z,6.60
2023-01-04T01:33:28.194Z,6.33
2023-01-04T01:37:29.266Z,7.57
2023-01-04T01:41:32.926Z,7.87
2023-01-04T01:45:34.220Z,7.00
2023-01-04T01:49:37.611Z,7.57
2023-01-04T01:53:42.589Z,6.53
2023-01-04T01:57:46.558Z,6.63
2023-01-04T02:01:47.848Z,10.00
2023-01-04T02:05:52.286Z,8.00
2023-01-04T02:09:55.567Z,9.80
2023-01-04T02:14:17.233Z,6.70
2023-01-04T02:18:22.103Z,5.80
2023-01-04T02:22:44.846Z,6.73
2023-01-04T02:27:15.481Z,6.93
2023-01-04T02:31:37.173Z,6.20
2023-01-04T02:36:00.128Z,6.60
2023-01-04T02:40:23.195Z,11.60
2023-01-04T02:44:52.517Z,10.93
2023-01-04T02:49:12.153Z,6.70
2023-01-04T02:53:17.028Z,7.67
2023-01-04T02:57:30.710Z,12.00
2023-01-04T03:02:12.945Z,9.77
2023-01-04T03:06:27.455Z,9.23
2023-01-04T03:10:50.812Z,10.70
2023-01-04T03:14:57.795Z,9.27
2023-01-04T03:19:01.340Z,9.80
2023-01-04T03:23:24.185Z,8.30
2023-01-04T03:27:43.760Z,8.80
2023-01-04T03:32:07.075Z,7.30
2023-01-04T03:36:21.228Z,6.40
2023-01-04T03:40:44.537Z,6.47
2023-01-04T03:45:10.533Z,7.17
2023-01-04T03:49:23.788Z,6.20
2023-01-04T03:53:26.668Z,6.17
2023-01-04T03:57:29.311Z,7.83
2023-01-04T04:01:31.037Z,6.10
2023-01-04T04:05:54.379Z,7.03
2023-01-04T04:09:55.519Z,9.63
2023-01-04T04:13:57.898Z,6.03
2023-01-04T04:17:58.963Z,7.87
2023-01-04T04:22:00.194Z,10.13
2023-01-04T04:26:01.360Z,5.60
2023-01-04T04:30:03.374Z,6.27
2023-01-04T04:34:04.733Z,9.27
2023-01-04T04:38:05.876Z,7.00
2023-01-04T04:42:08.295Z,9.63
2023-01-04T04:46:09.615Z,5.60
2023-01-04T04:50:10.774Z,9.30
2023-01-04T04:54:18.249Z,4.73
2023-01-04T04:58:20.495Z,6.33
2023-01-04T05:02:21.850Z,5.23
2023-01-04T05:06:23.500Z,8.80
2023-01-04T05:10:24.656Z,7.40
2023-01-04T05:14:25.999Z,7.90
2023-01-04T05:18:27.159Z,8.73
2023-01-04T05:22:28.431Z,5.83
2023-01-04T05:26:29.564Z,5.60
2023-01-04T05:30:49.453Z,9.43
2023-01-04T05:34:50.609Z,5.87
2023-01-04T05:38:51.666Z,6.30
2023-01-04T05:42:53.111Z,10.23
2023-01-04T05:46:54.187Z,7.27
2023-01-04T05:50:55.316Z,6.73
2023-01-04T05:54:56.503Z,7.77
2023-01-04T05:58:57.641Z,7.70
2023-01-04T06:02:58.956Z,6.47
2023-01-04T06:07:00.177Z,7.40
2023-01-04T06:11:01.324Z,9.23
2023-01-04T06:15:02.973Z,6.93
2023-01-04T06:19:04.235Z,10.00
2023-01-04T06:23:05.380Z,9.33
2023-01-04T06:27:06.656Z,8.23
2023-01-04T06:31:10.379Z,11.93
2023-01-04T06:35:11.572Z,11.90
2023-01-04T06:39:12.713Z,11.40
2023-01-04T06:43:13.897Z,13.00
2023-01-04T06:47:15.059Z,13.53
2023-01-04T06:51:16.235Z,11.87
2023-01-04T06:55:17.393Z,15.23
2023-01-04T06:59:18.531Z,10.20
2023-01-04T07:03:19.895Z,12.00
2023-01-04T07:07:21.173Z,12.10
2023-01-04T07:11:22.312Z,12.40
2023-01-04T07:15:38.593Z,12.43
2023-01-04T07:19:26.427Z,11.87
2023-01-04T07:23:27.633Z,10.53
2023-01-04T07:27:28.785Z,13.30
2023-01-04T07:31:30.047Z,9.73
2023-01-04T07:35:31.254Z,13.40
2023-01-04T07:39:32.380Z,13.83
2023-01-04T07:43:33.569Z,10.03
2023-01-04T07:47:34.849Z,12.80
2023-01-04T07:51:36.046Z,9.17
2023-01-04T07:55:37.171Z,10.53
2023-01-04T07:59:38.323Z,11.03
2023-01-04T08:03:40.223Z,10.40
2023-01-04T08:07:41.452Z,11.57
2023-01-04T08:11:43.559Z,9.57
2023-01-04T08:15:46.648Z,10.90
2023-01-04T08:19:47.818Z,11.73
2023-01-04T08:23:49.069Z,10.77
2023-01-04T08:27:51.471Z,10.67
2023-01-04T08:31:52.719Z,7.33
2023-01-04T08:35:53.906Z,10.43
2023-01-04T08:39:55.094Z,9.23
2023-01-04T08:43:56.258Z,7.50
2023-01-04T08:47:57.439Z,8.63
2023-01-04T08:51:58.611Z,8.90
2023-01-04T08:56:00.394Z,9.13
2023-01-04T09:00:02.095Z,8.20
2023-01-04T09:04:03.342Z,7.43
2023-01-04T09:08:05.046Z,12.33
2023-01-04T09:12:06.226Z,7.47
2023-01-04T09:16:11.251Z,6.70
2023-01-04T09:20:12.454Z,5.20
2023-01-04T09:24:13.898Z,7.93
2023-01-04T09:28:15.101Z,7.37
2023-01-04T09:32:16.954Z,5.73
2023-01-04T09:36:18.872Z,5.33
2023-01-04T09:40:23.902Z,7.10
2023-01-04T09:48:46.175Z,5.80
2023-01-04T09:53:10.999Z,8.13
2023-01-04T09:57:26.695Z,6.37
2023-01-04T10:01:46.903Z,6.00
2023-01-04T10:05:49.320Z,5.17
2023-01-04T10:09:50.414Z,7.37
2023-01-04T10:14:11.164Z,5.23
2023-01-04T10:22:35.364Z,5.00
2023-01-04T10:26:40.392Z,5.37
2023-01-04T10:30:45.361Z,4.43
2023-01-04T10:34:47.815Z,5.67
2023-01-04T10:38:55.472Z,5.17
2023-01-04T10:43:03.551Z,5.43
2023-01-04T10:47:14.752Z,5.37
2023-01-04T10:51:22.887Z,4.27
2023-01-04T10:55:37.089Z,4.17
2023-01-04T10:59:45.288Z,6.90
2023-01-04T11:04:14.308Z,4.10
2023-01-04T11:08:21.955Z,4.37
2023-01-04T11:12:23.721Z,4.50
2023-01-04T11:16:25.123Z,3.90
2023-01-04T11:20:27.254Z,5.60
2023-01-04T11:24:32.900Z,4.13
2023-01-04T11:28:53.350Z,4.53
2023-01-04T11:33:04.669Z,5.90
2023-01-04T11:37:09.633Z,4.33
2023-01-04T11:41:14.589Z,4.20
2023-01-04T11:45:18.783Z,5.47
2023-01-04T11:49:19.863Z,3.70
2023-01-04T11:53:29.547Z,4.70
2023-01-04T11:57:31.469Z,5.20
2023-01-04T12:01:38.796Z,4.70
2023-01-04T12:05:40.624Z,4.43
2023-01-04T12:09:41.818Z,4.17
2023-01-04T12:13:43.103Z,4.33
2023-01-04T12:17:51.293Z,4.53
2023-01-04T12:21:55.596Z,5.50
2023-01-04T12:25:56.971Z,3.97
2023-01-04T12:30:01.009Z,3.60
2023-01-04T12:34:22.752Z,3.17
2023-01-04T12:38:33.788Z,3.30
2023-01-04T12:42:34.949Z,4.93
2023-01-04T12:47:00.689Z,4.40
2023-01-04T12:51:32.233Z,3.80
2023-01-04T12:55:42.268Z,4.13
2023-01-04T13:00:01.801Z,4.03
2023-01-04T13:04:23.695Z,7.00
2023-01-04T13:08:25.705Z,9.13
2023-01-04T13:12:50.250Z,5.13
2023-01-04T13:17:07.666Z,5.50
2023-01-04T13:21:34.842Z,4.20
2023-01-04T13:25:35.922Z,6.07
2023-01-04T13:29:39.110Z,4.20
2023-01-04T13:33:44.117Z,3.70
2023-01-04T13:37:47.195Z,10.10
2023-01-04T13:41:48.384Z,4.73
2023-01-04T13:46:11.508Z,6.33
2023-01-04T13:50:19.403Z,4.93
2023-01-04T13:54:23.100Z,4.50
2023-01-04T13:58:27.425Z,3.57
2023-01-04T14:02:30.764Z,5.20
2023-01-04T14:06:35.868Z,12.33
2023-01-04T14:10:40.848Z,4.37
2023-01-04T14:14:57.830Z,4.30
2023-01-04T14:19:03.026Z,4.80
2023-01-04T14:23:04.758Z,3.33
2023-01-04T14:27:38.480Z,4.07
2023-01-04T14:31:40.418Z,3.93
2023-01-04T14:35:46.749Z,4.00
2023-01-04T14:39:45.291Z,3.87
2023-01-04T14:43:55.504Z,3.50
2023-01-04T14:47:56.687Z,6.00
2023-01-04T14:52:00.363Z,4.40
2023-01-04T14:56:01.596Z,5.00
2023-01-04T15:00:03.639Z,4.80
2023-01-04T15:04:05.828Z,3.53
2023-01-04T15:08:09.816Z,3.77
2023-01-04T15:12:11.102Z,4.47
2023-01-04T15:16:15.710Z,3.63
2023-01-04T15:20:17.145Z,4.00
2023-01-04T15:24:18.333Z,6.57
2023-01-04T15:28:21.201Z,3.53
2023-01-04T15:32:22.542Z,3.40
2023-01-04T15:36:24.324Z,3.70
2023-01-04T15:40:25.466Z,3.40
2023-01-04T15:44:26.672Z,3.90
2023-01-04T15:48:27.837Z,5.90
2023-01-04T15:52:29.035Z,4.03
2023-01-04T15:56:30.239Z,4.70
2023-01-04T16:00:32.092Z,2.97
2023-01-04T16:04:35.212Z,2.80
2023-01-04T16:08:36.371Z,2.63
2023-01-04T16:12:51.426Z,3.57
2023-01-04T16:16:49.776Z,5.80
2023-01-04T16:20:51.045Z,3.27
2023-01-04T16:28:55.334Z,3.83
2023-01-04T16:32:56.531Z,3.87
2023-01-04T16:36:58.028Z,3.17
2023-01-04T16:41:01.518Z,2.50
2023-01-04T16:45:03.238Z,3.27
2023-01-04T16:49:10.893Z,2.50
2023-01-04T16:53:12.045Z,2.70
2023-01-04T16:57:13.199Z,2.20
2023-01-04T17:01:20.873Z,3.40
2023-01-04T17:05:22.166Z,3.23
2023-01-04T17:09:23.359Z,2.90
2023-01-04T17:13:24.551Z,3.20
2023-01-04T17:17:25.744Z,2.50
2023-01-04T17:21:36.119Z,2.40
2023-01-04T17:25:31.761Z,2.40
2023-01-04T17:29:32.921Z,3.47
2023-01-04T17:33:34.418Z,2.77
2023-01-04T17:37:35.622Z,2.50
2023-01-04T17:41:38.099Z,4.20
2023-01-04T17:45:39.336Z,2.20
2023-01-04T17:49:40.466Z,2.60
2023-01-04T17:53:42.854Z,2.90
2023-01-04T18:01:45.195Z,2.73
2023-01-04T18:05:59.128Z,2.50
2023-01-04T18:09:54.882Z,5.17
2023-01-04T18:13:56.841Z,2.90
2023-01-04T18:17:58.173Z,3.23
2023-01-04T18:21:59.643Z,2.63
2023-01-04T18:26:01.721Z,3.47
2023-01-04T18:30:04.101Z,4.30
2023-01-04T18:34:05.293Z,2.40
2023-01-04T18:38:07.507Z,2.90
2023-01-04T18:42:08.743Z,2.60
2023-01-04T18:46:10.497Z,2.80
2023-01-04T18:50:11.642Z,2.83
2023-01-04T18:54:14.713Z,3.23
2023-01-04T18:58:15.884Z,2.33
2023-01-04T19:02:18.778Z,2.77
2023-01-04T19:06:21.939Z,3.27
2023-01-04T19:10:23.255Z,2.97
2023-01-04T19:14:24.489Z,3.00
2023-01-04T19:18:26.395Z,3.40
2023-01-04T19:22:27.615Z,2.57
2023-01-04T19:26:28.987Z,3.13
2023-01-04T19:30:30.652Z,3.40
2023-01-04T19:34:31.811Z,3.23
2023-01-04T19:38:33.313Z,4.03
2023-01-04T19:42:34.489Z,3.80
2023-01-04T19:46:39.907Z,3.60
2023-01-04T19:50:41.095Z,4.73
2023-01-04T19:54:42.296Z,5.40
2023-01-04T19:58:45.315Z,3.40
2023-01-04T20:02:46.728Z,3.47
2023-01-04T20:06:48.743Z,3.77
2023-01-04T20:10:54.460Z,4.10
2023-01-04T20:14:55.709Z,4.90
2023-01-04T20:18:57.488Z,5.83
2023-01-04T20:22:58.711Z,3.80
2023-01-04T20:26:59.904Z,3.63
2023-01-04T20:31:04.396Z,4.27
2023-01-04T20:35:06.209Z,7.00
2023-01-04T20:39:07.470Z,4.83
2023-01-04T20:43:16.567Z,3.27
2023-01-04T20:47:17.733Z,4.20
2023-01-04T20:51:22.240Z,3.40
2023-01-04T20:55:23.535Z,4.63
2023-01-04T20:59:24.745Z,2.70
2023-01-04T21:03:25.909Z,2.83
2023-01-04T21:07:29.037Z,2.87
2023-01-04T21:11:30.173Z,2.40
2023-01-04T21:15:31.430Z,2.87
2023-01-04T21:19:33.788Z,1.90
2023-01-04T21:23:35.841Z,2.67
2023-01-04T21:27:37.392Z,2.10
2023-01-04T21:31:38.679Z,2.17
2023-01-04T21:35:40.208Z,3.10
2023-01-04T21:39:41.356Z,2.00
2023-01-04T21:43:43.424Z,2.37
2023-01-04T21:47:45.267Z,2.50
2023-01-04T21:51:46.457Z,2.97
2023-01-04T21:55:47.849Z,3.00
2023-01-04T21:59:49.019Z,2.50
2023-01-04T22:03:50.392Z,3.13
2023-01-04T22:07:51.533Z,3.10
2023-01-04T22:11:52.701Z,3.20
2023-01-04T22:15:54.354Z,3.83
2023-01-04T22:19:55.573Z,3.53
2023-01-04T22:23:57.762Z,3.40
2023-01-04T22:27:58.916Z,3.40
2023-01-04T22:32:00.162Z,5.00
2023-01-04T22:36:05.839Z,3.20
2023-01-04T22:40:07.972Z,4.93
2023-01-04T22:44:09.909Z,4.80
2023-01-04T22:48:11.000Z,4.03
2023-01-04T22:52:12.151Z,3.77
2023-01-04T22:56:20.725Z,5.77
2023-01-04T23:00:18.856Z,5.30
2023-01-04T23:04:19.991Z,3.83
2023-01-04T23:08:21.091Z,6.00
2023-01-04T23:12:22.202Z,3.80
2023-01-04T23:16:31.601Z,3.47
2023-01-04T23:20:27.150Z,4.37
2023-01-04T23:24:28.307Z,3.20
2023-01-04T23:28:29.447Z,2.70
2023-01-04T23:32:31.312Z,3.43
2023-01-04T23:36:35.507Z,3.23
2023-01-04T23:40:36.672Z,4.00
2023-01-04T23:44:37.860Z,2.60
2023-01-04T23:48:39.340Z,3.33
2023-01-04T23:52:40.648Z,3.53
2023-01-04T23:56:41.812Z,2.63
